Fayetteville, AR

9:32 PM CDT on July 03, 2015 (GMT -0500)
Porter Road, Fayetteville | | Change Station
CLOSE
Current Station
Personal Weather Station
Location: Fayetteville, AR
Elevation: 1260 ft
Nearby Weather Stations

Elev 1260 ft 36.08 °N, 94.19 °W | Updated 40 seconds ago

Partly Cloudy
Partly Cloudy
69.6 °F
Feels Like 69.6 °F
N
0.0
Wind Variable Wind from South
Gusts 0.0 mph

Today
High -- | Low -- °F
--% Chance of Precip.
Yesterday
High -- | Low -- °F
Precip. -- in
6:04 AM 8:37 PM
Waning Gibbous, 95% visible
Pressure 29.89 in
Visibility 9.0 miles
Clouds Scattered Clouds 4100 ft
Dew Point 69 °F
Humidity 98%
Rainfall 0.76 in
Snow Depth Not available.
UV 0 out of 12
Pollen .50 out of 12
Air Quality Not available.
Flu Activity Not available.
METAR KFYV 040153Z 00000KT 9SM SCT041 21/21 A2993 RMK AO2 SLP121 T02110206

More Conditions Fewer Conditions

Pressure 29.89 in
Visibility 9.0 miles
Clouds Scattered Clouds 4100 ft
Dew Point 69 °F
Humidity 98%
Rainfall 0.76 in
Snow Depth Not available.
UV 0 out of 12
Pollen .50 out of 12
Air Quality Not available.
Flu Activity Not available.
METAR KFYV 040153Z 00000KT 9SM SCT041 21/21 A2993 RMK AO2 SLP121 T02110206

More Conditions Fewer Conditions

Nowcast | as of 8:04 PM CDT on July 3, 2015

At 8:04 PM...National Weather Service Doppler radars continued to detect scattered showers and thunderstorms developing across portions of southeast Oklahoma and western Arkansas. A few stronger storms were located within Le Flore...southern Pittsburg...and northern Pushmataha counties. Several reports of wind damage had been relayed to the Weather Service. All of this activity was moving toward the southeast...around 25 miles per hour. Through 9:30 PM...scattered showers and thunderstorms will continue to develop across southeast Oklahoma and western Arkansas...and track toward the southeast. Moderate to heavy rainfall can be expected...with amounts generally between a couple tenths to a half inch per hour. Some of the storms could become strong to severe...with the main threats being strong downburst winds. Cloud to ground lightning and heavy rainfall will also be likely.

×

10-Day Weather Forecast

×

Almanac

Astronomy

Jul. 03, 2015 Rise Set
Actual Time
Civil Twilight
Nautical Twilight
Astronomical Twilight
Moon
Length of Visible Light
Length of Day
Tomorrow will be .
, % of the Moon is Illuminated

Today's Extremes

State Highs State Lows

Community

WunderPhotos

Upload Photos

1,834,901 photos uploaded!

WunderBlogs® & News

Nearby

Air Quality

  Air Quality AQ Index Pollutant
Not available.

Snow Depth

Station Depth Elevation

Earthquake Activity

City Distance Mag. Time & Date
Minimum magnitude displayed is 2.5.

Coastal Water Temperatures

Place Temperature

Stations

Nearby Weather Stations

Station Location Temp. Windchill Dew Point Humidity Wind Precip. Elev Updated Type